Time;durP1;ratioP1;P1;durP2;ratioP2;P2;SDS_P1;SDS_P2;PMS_P1;PMS_P2;Temp;Humidity;BMP_temperature;BMP_pressure;BME280_temperature;BME280_humidity;BME280_pressure;Samples;Min_cycle;Max_cycle;Signal;HPM_P1;HPM_P2
2023/06/07 00:00:34;;;;;;;;;;;;;;;;;;5021268;28;19972;-61
2023/06/07 00:03:00;;;;;;;;;;;;;;;;;;5027267;28;19975;-61
2023/06/07 00:05:26;;;;;;;;;;;;;;;;;;5026783;28;19952;-61
2023/06/07 00:07:52;;;;;;;;;;;;;;;;;;5028994;28;19921;-61
2023/06/07 00:10:18;;;;;;;;;;;;;;;;;;5031079;28;20311;-61
2023/06/07 00:12:44;;;;;;;;;;;;;;;;;;5031106;28;19979;-61
2023/06/07 00:15:10;;;;;;;;;;;;;;;;;;5029814;28;19931;-61
2023/06/07 00:17:37;;;;;;;;;;;;;;;;;;5030834;28;19966;-61
2023/06/07 00:20:03;;;;;;;;;;;;;;;;;;5031100;28;19925;-61
2023/06/07 00:22:31;;;;;;;;;;;;;;;;;;5029187;28;20338;-61
2023/06/07 00:24:57;;;;;;;;;;;;;;;;;;5030344;28;20020;-61
2023/06/07 00:27:23;;;;;;;;;;;;;;;;;;5029224;28;19933;-61
2023/06/07 00:29:49;;;;;;;;;;;;;;;;;;5030303;28;20433;-61
2023/06/07 00:32:15;;;;;;;;;;;;;;;;;;5013098;28;19947;-61
2023/06/07 00:34:41;;;;;;;;;;;;;;;;;;5030560;28;20043;-61
2023/06/07 00:37:07;;;;;;;;;;;;;;;;;;5029888;28;20410;-61
2023/06/07 00:39:33;;;;;;;;;;;;;;;;;;5030980;28;19928;-59
2023/06/07 00:41:58;;;;;;;;;;;;;;;;;;5030931;28;19933;-61
2023/06/07 00:44:24;;;;;;;;;;;;;;;;;;5030780;28;19925;-61
2023/06/07 00:46:53;;;;;;;;;;;;;;;;;;5030629;28;19921;-61
2023/06/07 00:49:19;;;;;;;;;;;;;;;;;;5029822;28;20012;-61
2023/06/07 00:51:45;;;;;;;;;;;;;;;;;;5026991;28;20701;-61
2023/06/07 00:54:17;;;;;;;;;;;;;;;;;;5029634;28;19928;-61
2023/06/07 00:56:43;;;;;;;;;;;;;;;;;;5031023;28;19921;-62
2023/06/07 00:59:09;;;;;;;;;;;;;;;;;;5029501;28;19921;-61
2023/06/07 01:01:35;;;;;;;;;;;;;;;;;;5029849;28;19979;-61
2023/06/07 01:04:01;;;;;;;;;;;;;;;;;;5028640;28;19929;-61
2023/06/07 01:06:29;;;;;;;;;;;;;;;;;;5026503;28;19983;-61
2023/06/07 01:08:55;;;;;;;;;;;;;;;;;;5028291;28;19971;-60
2023/06/07 01:11:21;;;;;;;;;;;;;;;;;;5031751;28;19996;-60
2023/06/07 01:13:47;;;;;;;;;;;;;;;;;;5016556;28;19925;-60
2023/06/07 01:16:13;;;;;;;;;;;;;;;;;;5034083;28;19944;-61
2023/06/07 01:18:41;;;;;;;;;;;;;;;;;;5033182;28;19925;-61
2023/06/07 01:21:07;;;;;;;;;;;;;;;;;;5030372;28;19921;-60
2023/06/07 01:23:33;;;;;;;;;;;;;;;;;;5033653;28;19987;-60
2023/06/07 01:25:59;;;;;;;;;;;;;;;;;;5033683;28;19924;-60
2023/06/07 01:28:25;;;;;;;;;;;;;;;;;;5018437;28;20259;-61
2023/06/07 01:30:51;;;;;;;;;;;;;;;;;;5018741;28;19943;-61
2023/06/07 01:33:17;;;;;;;;;;;;;;;;;;5031805;28;19925;-60
2023/06/07 01:35:44;;;;;;;;;;;;;;;;;;5033077;28;20394;-60
2023/06/07 01:38:10;;;;;;;;;;;;;;;;;;5026898;28;20396;-60
2023/06/07 01:40:36;;;;;;;;;;;;;;;;;;5033226;28;19925;-60
2023/06/07 01:43:01;;;;;;;;;;;;;;;;;;5033237;28;19922;-60
2023/06/07 01:45:27;;;;;;;;;;;;;;;;;;5032755;28;20282;-61
2023/06/07 01:47:53;;;;;;;;;;;;;;;;;;5014184;28;19925;-60
2023/06/07 01:50:19;;;;;;;;;;;;;;;;;;5031919;28;19925;-60
2023/06/07 01:52:45;;;;;;;;;;;;;;;;;;5033543;28;19921;-61
2023/06/07 01:55:11;;;;;;;;;;;;;;;;;;5033394;28;20290;-61
2023/06/07 01:57:38;;;;;;;;;;;;;;;;;;5032551;28;19933;-60
2023/06/07 02:00:05;;;;;;;;;;;;;;;;;;5013919;28;19929;-61
2023/06/07 02:02:31;;;;;;;;;;;;;;;;;;5030282;28;19929;-61
2023/06/07 02:04:57;;;;;;;;;;;;;;;;;;5033434;28;20263;-61
2023/06/07 02:07:23;;;;;;;;;;;;;;;;;;5031710;28;19925;-61
2023/06/07 02:09:49;;;;;;;;;;;;;;;;;;5014542;28;19932;-61
2023/06/07 02:12:15;;;;;;;;;;;;;;;;;;5031733;28;20465;-61
2023/06/07 02:14:42;;;;;;;;;;;;;;;;;;5031382;28;19921;-61
2023/06/07 02:17:07;;;;;;;;;;;;;;;;;;5030231;28;19957;-62
2023/06/07 02:19:34;;;;;;;;;;;;;;;;;;5032045;28;20046;-61
2023/06/07 02:22:00;;;;;;;;;;;;;;;;;;5028768;28;19967;-61
2023/06/07 02:24:27;;;;;;;;;;;;;;;;;;5031958;28;19932;-61
2023/06/07 02:26:56;;;;;;;;;;;;;;;;;;5032708;28;19956;-61
2023/06/07 02:29:22;;;;;;;;;;;;;;;;;;5022477;28;19928;-61
2023/06/07 02:31:47;;;;;;;;;;;;;;;;;;5024032;28;20406;-61
2023/06/07 02:34:14;;;;;;;;;;;;;;;;;;5032496;28;19925;-61
2023/06/07 02:36:40;;;;;;;;;;;;;;;;;;5032485;28;19928;-61
2023/06/07 02:39:07;;;;;;;;;;;;;;;;;;5032398;28;19921;-61
2023/06/07 02:41:33;;;;;;;;;;;;;;;;;;5031420;28;19921;-61
2023/06/07 02:43:59;;;;;;;;;;;;;;;;;;5012984;28;19921;-61
2023/06/07 02:46:25;;;;;;;;;;;;;;;;;;5030902;28;19936;-61
2023/06/07 02:48:51;;;;;;;;;;;;;;;;;;5031792;28;20024;-61
2023/06/07 02:51:16;;;;;;;;;;;;;;;;;;5032281;28;19921;-61
2023/06/07 02:53:44;;;;;;;;;;;;;;;;;;5032580;28;19928;-61
2023/06/07 02:56:10;;;;;;;;;;;;;;;;;;5012655;28;19975;-61
2023/06/07 02:58:36;;;;;;;;;;;;;;;;;;5029617;28;19920;-61
2023/06/07 03:01:07;;;;;;;;;;;;;;;;;;5028351;28;19925;-61
2023/06/07 03:03:35;;;;;;;;;;;;;;;;;;5029943;28;19924;-62
2023/06/07 03:06:00;;;;;;;;;;;;;;;;;;5031357;28;20342;-63
2023/06/07 03:08:26;;;;;;;;;;;;;;;;;;5031714;28;19925;-63
2023/06/07 03:10:52;;;;;;;;;;;;;;;;;;5031462;28;19921;-63
2023/06/07 03:13:18;;;;;;;;;;;;;;;;;;5012567;28;20357;-63
2023/06/07 03:15:45;;;;;;;;;;;;;;;;;;5010044;28;19921;-63
2023/06/07 03:18:15;;;;;;;;;;;;;;;;;;5009942;28;20354;-62
2023/06/07 03:20:41;;;;;;;;;;;;;;;;;;5031978;28;19925;-63
2023/06/07 03:23:07;;;;;;;;;;;;;;;;;;5030356;28;19928;-61
2023/06/07 03:25:33;;;;;;;;;;;;;;;;;;5031416;28;19925;-62
2023/06/07 03:27:59;;;;;;;;;;;;;;;;;;5013340;28;20051;-62
2023/06/07 03:30:25;;;;;;;;;;;;;;;;;;5028026;28;20012;-61
2023/06/07 03:32:51;;;;;;;;;;;;;;;;;;5030843;28;20320;-63
2023/06/07 03:35:17;;;;;;;;;;;;;;;;;;5028370;28;19929;-62
2023/06/07 03:37:43;;;;;;;;;;;;;;;;;;5029523;28;19978;-62
2023/06/07 03:40:09;;;;;;;;;;;;;;;;;;5030340;28;19920;-62
2023/06/07 03:42:35;;;;;;;;;;;;;;;;;;5030909;28;19928;-62
2023/06/07 03:45:01;;;;;;;;;;;;;;;;;;5031200;28;19925;-62
2023/06/07 03:47:28;;;;;;;;;;;;;;;;;;5029964;28;19978;-62
2023/06/07 03:49:53;;;;;;;;;;;;;;;;;;5037756;28;19928;-61
2023/06/07 03:52:19;;;;;;;;;;;;;;;;;;5031361;28;19921;-62
2023/06/07 03:54:45;;;;;;;;;;;;;;;;;;5014151;28;19925;-62
2023/06/07 03:57:11;;;;;;;;;;;;;;;;;;4990537;28;20294;-62
2023/06/07 03:59:37;;;;;;;;;;;;;;;;;;5030140;28;19921;-62
2023/06/07 04:02:03;;;;;;;;;;;;;;;;;;5011507;28;20050;-62
2023/06/07 04:04:32;;;;;;;;;;;;;;;;;;5028579;28;19964;-63
2023/06/07 04:06:58;;;;;;;;;;;;;;;;;;4994531;28;20338;-62
2023/06/07 04:09:24;;;;;;;;;;;;;;;;;;5026731;28;19921;-63
2023/06/07 04:11:50;;;;;;;;;;;;;;;;;;5027666;28;19940;-62
2023/06/07 04:14:16;;;;;;;;;;;;;;;;;;5029086;28;19928;-63
2023/06/07 04:16:42;;;;;;;;;;;;;;;;;;5030133;28;19928;-62
2023/06/07 04:19:08;;;;;;;;;;;;;;;;;;5029646;28;20345;-62
2023/06/07 04:21:34;;;;;;;;;;;;;;;;;;5033531;22;21579;-62
2023/06/07 04:24:00;;;;;;;;;;;;;;;;;;5028403;28;19972;-63
2023/06/07 04:26:30;;;;;;;;;;;;;;;;;;5010336;28;20016;-63
2023/06/07 04:28:57;;;;;;;;;;;;;;;;;;5027793;28;19925;-63
2023/06/07 04:31:29;;;;;;;;;;;;;;;;;;5027715;28;19921;-63
2023/06/07 04:33:57;;;;;;;;;;;;;;;;;;5026772;28;19927;-63
2023/06/07 04:36:25;;;;;;;;;;;;;;;;;;5028906;28;20008;-63
2023/06/07 04:38:52;;;;;;;;;;;;;;;;;;5029650;28;20325;-63
2023/06/07 04:41:18;;;;;;;;;;;;;;;;;;5028270;28;19925;-63
2023/06/07 04:43:48;;;;;;;;;;;;;;;;;;5028506;28;20464;-61
2023/06/07 04:46:15;;;;;;;;;;;;;;;;;;5014493;28;20369;-62
2023/06/07 04:48:43;;;;;;;;;;;;;;;;;;5030887;28;19947;-63
2023/06/07 04:51:09;;;;;;;;;;;;;;;;;;5032058;28;19921;-63
2023/06/07 04:53:36;;;;;;;;;;;;;;;;;;5033353;28;19932;-62
2023/06/07 04:56:03;;;;;;;;;;;;;;;;;;5025759;28;19944;-62
2023/06/07 04:58:29;;;;;;;;;;;;;;;;;;5031582;28;19958;-62
2023/06/07 05:00:56;;;;;;;;;;;;;;;;;;5008979;28;19928;-62
2023/06/07 05:03:22;;;;;;;;;;;;;;;;;;5028931;28;19925;-63
2023/06/07 05:05:48;;;;;;;;;;;;;;;;;;5033584;28;19944;-63
2023/06/07 05:08:14;;;;;;;;;;;;;;;;;;5035482;28;20589;-63
2023/06/07 05:10:40;;;;;;;;;;;;;;;;;;5034185;28;19932;-63
2023/06/07 05:13:06;;;;;;;;;;;;;;;;;;5022608;28;19922;-63
2023/06/07 05:15:32;;;;;;;;;;;;;;;;;;5031561;28;20377;-62
2023/06/07 05:17:58;;;;;;;;;;;;;;;;;;5012745;28;19933;-63
2023/06/07 05:20:27;;;;;;;;;;;;;;;;;;5032902;28;19936;-63
2023/06/07 05:22:53;;;;;;;;;;;;;;;;;;5033580;28;19921;-63
2023/06/07 05:25:19;;;;;;;;;;;;;;;;;;5015680;28;19933;-63
2023/06/07 05:27:45;;;;;;;;;;;;;;;;;;5035211;28;20374;-63
2023/06/07 05:30:11;;;;;;;;;;;;;;;;;;5026461;28;19921;-63
2023/06/07 05:32:37;;;;;;;;;;;;;;;;;;5024916;28;19925;-63
2023/06/07 05:35:03;;;;;;;;;;;;;;;;;;5033472;28;20617;-63
2023/06/07 05:37:29;;;;;;;;;;;;;;;;;;5032597;28;19925;-63
2023/06/07 05:39:55;;;;;;;;;;;;;;;;;;5033411;28;20381;-63
2023/06/07 05:42:21;;;;;;;;;;;;;;;;;;5032174;28;19936;-63
2023/06/07 05:44:46;;;;;;;;;;;;;;;;;;5008671;28;20458;-63
2023/06/07 05:47:12;;;;;;;;;;;;;;;;;;5029874;28;19925;-63
2023/06/07 05:49:38;;;;;;;;;;;;;;;;;;5008135;28;19921;-63
2023/06/07 05:52:05;;;;;;;;;;;;;;;;;;5024913;28;20004;-63
2023/06/07 05:54:30;;;;;;;;;;;;;;;;;;5021305;28;19925;-63
2023/06/07 05:56:56;;;;;;;;;;;;;;;;;;5028424;28;19928;-63
2023/06/07 05:59:22;;;;;;;;;;;;;;;;;;5036883;28;20433;-62
2023/06/07 06:01:48;;;;;;;;;;;;;;;;;;5018483;28;19921;-62
2023/06/07 06:04:16;;;;;;;;;;;;;;;;;;5016818;28;19929;-63
2023/06/07 06:06:42;;;;;;;;;;;;;;;;;;5026234;28;19924;-63
2023/06/07 06:09:09;;;;;;;;;;;;;;;;;;5015180;28;19936;-63
2023/06/07 06:11:35;;;;;;;;;;;;;;;;;;5025248;28;19975;-63
2023/06/07 06:14:01;;;;;;;;;;;;;;;;;;5024140;28;19991;-63
2023/06/07 06:16:27;;;;;;;;;;;;;;;;;;5008591;28;19929;-63
2023/06/07 06:18:52;;;;;;;;;;;;;;;;;;5024662;28;20010;-63
2023/06/07 06:21:18;;;;;;;;;;;;;;;;;;5023048;28;20449;-63
2023/06/07 06:23:44;;;;;;;;;;;;;;;;;;5004525;28;19936;-63
2023/06/07 06:26:10;;;;;;;;;;;;;;;;;;5029989;28;20301;-63
2023/06/07 06:28:36;;;;;;;;;;;;;;;;;;5017544;28;20003;-63
2023/06/07 06:31:03;;;;;;;;;;;;;;;;;;5012173;28;19925;-63
2023/06/07 06:33:29;;;;;;;;;;;;;;;;;;5026890;28;20399;-61
2023/06/07 06:35:55;;;;;;;;;;;;;;;;;;5028563;28;19925;-61
2023/06/07 06:38:21;;;;;;;;;;;;;;;;;;5028706;28;19925;-59
2023/06/07 06:40:47;;;;;;;;;;;;;;;;;;5029676;28;20040;-61
2023/06/07 06:43:13;;;;;;;;;;;;;;;;;;5032747;28;19971;-64
2023/06/07 06:45:39;;;;;;;;;;;;;;;;;;5030185;28;20370;-64
2023/06/07 06:48:05;;;;;;;;;;;;;;;;;;5027462;28;19968;-65
2023/06/07 06:50:31;;;;;;;;;;;;;;;;;;5023126;28;19969;-65
2023/06/07 06:52:57;;;;;;;;;;;;;;;;;;5031320;28;19921;-65
2023/06/07 06:55:23;;;;;;;;;;;;;;;;;;5003700;28;20008;-65
2023/06/07 06:57:49;;;;;;;;;;;;;;;;;;5031149;28;19925;-66
2023/06/07 07:00:15;;;;;;;;;;;;;;;;;;5030094;28;20012;-66
2023/06/07 07:02:40;;;;;;;;;;;;;;;;;;5030668;28;20347;-65
2023/06/07 07:05:06;;;;;;;;;;;;;;;;;;5012196;28;19925;-65
2023/06/07 07:07:32;;;;;;;;;;;;;;;;;;5027235;28;20325;-65
2023/06/07 07:09:59;;;;;;;;;;;;;;;;;;5026255;28;20405;-65
2023/06/07 07:12:25;;;;;;;;;;;;;;;;;;5028642;28;20362;-65
2023/06/07 07:14:51;;;;;;;;;;;;;;;;;;5020348;28;19924;-65
2023/06/07 07:17:16;;;;;;;;;;;;;;;;;;5020926;28;19925;-65
2023/06/07 07:19:42;;;;;;;;;;;;;;;;;;5025888;28;20325;-65
2023/06/07 07:22:08;;;;;;;;;;;;;;;;;;5008880;28;20003;-65
2023/06/07 07:24:34;;;;;;;;;;;;;;;;;;5014374;28;19928;-66
2023/06/07 07:27:00;;;;;;;;;;;;;;;;;;5020789;28;20021;-66
2023/06/07 07:29:26;;;;;;;;;;;;;;;;;;5028629;28;19921;-66
2023/06/07 07:31:52;;;;;;;;;;;;;;;;;;5025013;28;20295;-66
2023/06/07 07:34:18;;;;;;;;;;;;;;;;;;5016741;28;19929;-67
2023/06/07 07:36:44;;;;;;;;;;;;;;;;;;5022935;28;19933;-66
2023/06/07 07:39:10;;;;;;;;;;;;;;;;;;5024359;28;19925;-66
2023/06/07 07:41:36;;;;;;;;;;;;;;;;;;5032186;28;20628;-66
2023/06/07 07:44:02;;;;;;;;;;;;;;;;;;5032559;28;19933;-66
2023/06/07 07:46:28;;;;;;;;;;;;;;;;;;5032636;28;19971;-66
2023/06/07 07:48:54;;;;;;;;;;;;;;;;;;5031202;28;19996;-66
2023/06/07 07:51:20;;;;;;;;;;;;;;;;;;5032030;28;19925;-65
2023/06/07 07:53:47;;;;;;;;;;;;;;;;;;5032678;28;19921;-65
2023/06/07 07:56:13;;;;;;;;;;;;;;;;;;5032327;28;19921;-65
2023/06/07 07:58:39;;;;;;;;;;;;;;;;;;5032421;28;19925;-65
2023/06/07 08:01:08;;;;;;;;;;;;;;;;;;5008010;28;19925;-65
2023/06/07 08:03:34;;;;;;;;;;;;;;;;;;5020261;28;20020;-66
2023/06/07 08:06:01;;;;;;;;;;;;;;;;;;5032191;28;19928;-65
2023/06/07 08:08:28;;;;;;;;;;;;;;;;;;5031812;28;19995;-65
2023/06/07 08:10:53;;;;;;;;;;;;;;;;;;5032037;28;20271;-65
2023/06/07 08:13:19;;;;;;;;;;;;;;;;;;5032220;28;19932;-64
2023/06/07 08:15:45;;;;;;;;;;;;;;;;;;5001023;28;19921;-65
2023/06/07 08:18:11;;;;;;;;;;;;;;;;;;5017021;28;20275;-65
2023/06/07 08:20:37;;;;;;;;;;;;;;;;;;5012139;28;20012;-65
2023/06/07 08:23:03;;;;;;;;;;;;;;;;;;5015311;28;20374;-66
2023/06/07 08:25:29;;;;;;;;;;;;;;;;;;5031720;28;19929;-65
2023/06/07 08:27:55;;;;;;;;;;;;;;;;;;4998143;28;19930;-66
2023/06/07 08:30:21;;;;;;;;;;;;;;;;;;5032087;28;20375;-65
2023/06/07 08:32:47;;;;;;;;;;;;;;;;;;5018580;28;19962;-65
2023/06/07 08:35:13;;;;;;;;;;;;;;;;;;5020312;28;19925;-65
2023/06/07 08:37:40;;;;;;;;;;;;;;;;;;5030605;28;20007;-65
2023/06/07 08:40:06;;;;;;;;;;;;;;;;;;5031863;28;19921;-65
2023/06/07 08:42:31;;;;;;;;;;;;;;;;;;5031499;28;19974;-65
2023/06/07 08:44:57;;;;;;;;;;;;;;;;;;5031854;28;20023;-65
2023/06/07 08:47:23;;;;;;;;;;;;;;;;;;5029118;28;19925;-66
2023/06/07 08:49:49;;;;;;;;;;;;;;;;;;5031773;28;19932;-65
2023/06/07 08:52:15;;;;;;;;;;;;;;;;;;5013700;28;19921;-65
2023/06/07 08:54:41;;;;;;;;;;;;;;;;;;5013679;28;19924;-65
2023/06/07 08:57:07;;;;;;;;;;;;;;;;;;5031339;28;20018;-64
2023/06/07 08:59:33;;;;;;;;;;;;;;;;;;5031277;28;19987;-66
2023/06/07 09:01:59;;;;;;;;;;;;;;;;;;5017007;28;20088;-66
2023/06/07 09:04:25;;;;;;;;;;;;;;;;;;5023464;28;19935;-65
2023/06/07 09:06:51;;;;;;;;;;;;;;;;;;5031609;28;19921;-64
2023/06/07 09:09:17;;;;;;;;;;;;;;;;;;5013685;28;19928;-64
2023/06/07 09:11:43;;;;;;;;;;;;;;;;;;5031467;28;20412;-65
2023/06/07 09:14:09;;;;;;;;;;;;;;;;;;5031527;28;19991;-64
2023/06/07 09:16:35;;;;;;;;;;;;;;;;;;5023109;28;20046;-65
2023/06/07 09:19:01;;;;;;;;;;;;;;;;;;5018347;28;19971;-65
2023/06/07 09:21:27;;;;;;;;;;;;;;;;;;5017840;28;19925;-64
2023/06/07 09:23:53;;;;;;;;;;;;;;;;;;5026769;28;19937;-65
2023/06/07 09:26:18;;;;;;;;;;;;;;;;;;5028032;28;19947;-65
2023/06/07 09:28:46;;;;;;;;;;;;;;;;;;5029275;28;19921;-65
2023/06/07 09:31:12;;;;;;;;;;;;;;;;;;5027366;28;20361;-65
2023/06/07 09:33:37;;;;;;;;;;;;;;;;;;5025785;28;19921;-65
2023/06/07 09:36:03;;;;;;;;;;;;;;;;;;5031385;28;20519;-65
2023/06/07 09:38:29;;;;;;;;;;;;;;;;;;5005585;28;20387;-64
2023/06/07 09:40:55;;;;;;;;;;;;;;;;;;5030865;28;20008;-65
2023/06/07 09:43:21;;;;;;;;;;;;;;;;;;5031025;28;19936;-65
2023/06/07 09:45:47;;;;;;;;;;;;;;;;;;5030002;28;19979;-65
2023/06/07 09:48:13;;;;;;;;;;;;;;;;;;5029138;28;19940;-65
2023/06/07 09:50:39;;;;;;;;;;;;;;;;;;5032196;28;19921;-65
2023/06/07 09:53:05;;;;;;;;;;;;;;;;;;5023146;28;20326;-66
2023/06/07 09:55:31;;;;;;;;;;;;;;;;;;5025151;28;20389;-65
2023/06/07 09:57:57;;;;;;;;;;;;;;;;;;5030590;28;19925;-64
2023/06/07 10:00:23;;;;;;;;;;;;;;;;;;5022637;28;19928;-64
2023/06/07 10:02:49;;;;;;;;;;;;;;;;;;5019694;28;20278;-65
2023/06/07 10:05:15;;;;;;;;;;;;;;;;;;5010773;28;19936;-65
2023/06/07 10:07:41;;;;;;;;;;;;;;;;;;5031156;28;20023;-65
2023/06/07 10:10:07;;;;;;;;;;;;;;;;;;5022913;28;20048;-65
2023/06/07 10:12:36;;;;;;;;;;;;;;;;;;5032813;28;20399;-65
2023/06/07 10:15:02;;;;;;;;;;;;;;;;;;5023024;28;19933;-65
2023/06/07 10:17:28;;;;;;;;;;;;;;;;;;5028995;28;19928;-65
2023/06/07 10:19:58;;;;;;;;;;;;;;;;;;5015874;28;19925;-65
2023/06/07 10:22:24;;;;;;;;;;;;;;;;;;4969833;28;1784041;-65
2023/06/07 10:24:51;;;;;;;;;;;;;;;;;;5030211;28;19929;-65
2023/06/07 10:27:17;;;;;;;;;;;;;;;;;;5017624;28;19971;-65
2023/06/07 10:29:43;;;;;;;;;;;;;;;;;;5031516;28;19925;-65
2023/06/07 10:32:09;;;;;;;;;;;;;;;;;;5031772;28;19921;-65
2023/06/07 10:34:36;;;;;;;;;;;;;;;;;;5032500;28;19980;-65
2023/06/07 10:37:02;;;;;;;;;;;;;;;;;;5030864;28;23724;-65
2023/06/07 10:39:28;;;;;;;;;;;;;;;;;;5029234;28;19925;-65
2023/06/07 10:41:54;;;;;;;;;;;;;;;;;;5028778;28;20254;-65
2023/06/07 10:44:20;;;;;;;;;;;;;;;;;;5027895;28;19925;-65
2023/06/07 10:46:46;;;;;;;;;;;;;;;;;;5012899;28;19921;-65
2023/06/07 10:49:12;;;;;;;;;;;;;;;;;;5026015;28;19924;-66
2023/06/07 10:51:38;;;;;;;;;;;;;;;;;;5028107;28;19967;-65
2023/06/07 10:54:04;;;;;;;;;;;;;;;;;;5024539;28;19999;-65
2023/06/07 10:56:30;;;;;;;;;;;;;;;;;;5028780;28;19968;-65
2023/06/07 10:58:56;;;;;;;;;;;;;;;;;;5011804;28;19936;-65
2023/06/07 11:01:23;;;;;;;;;;;;;;;;;;5027015;28;19921;-66
2023/06/07 11:03:49;;;;;;;;;;;;;;;;;;5030849;28;19925;-65
2023/06/07 11:06:15;;;;;;;;;;;;;;;;;;5021010;28;20377;-66
2023/06/07 11:08:41;;;;;;;;;;;;;;;;;;5010245;28;19928;-66
2023/06/07 11:11:07;;;;;;;;;;;;;;;;;;5029454;28;19921;-66
2023/06/07 11:13:33;;;;;;;;;;;;;;;;;;5030372;28;19994;-66
2023/06/07 11:15:59;;;;;;;;;;;;;;;;;;5028690;28;20386;-65
2023/06/07 11:18:25;;;;;;;;;;;;;;;;;;5022299;28;19975;-65
2023/06/07 11:20:51;;;;;;;;;;;;;;;;;;5029035;28;20382;-65
2023/06/07 11:23:18;;;;;;;;;;;;;;;;;;5033201;28;19921;-65
2023/06/07 11:25:44;;;;;;;;;;;;;;;;;;5005156;28;20410;-65
2023/06/07 11:28:10;;;;;;;;;;;;;;;;;;5027409;28;19929;-65
2023/06/07 11:30:36;;;;;;;;;;;;;;;;;;5032772;28;19921;-65
2023/06/07 11:33:03;;;;;;;;;;;;;;;;;;5032789;28;19921;-66
2023/06/07 11:35:29;;;;;;;;;;;;;;;;;;5013990;28;19975;-66
2023/06/07 11:37:55;;;;;;;;;;;;;;;;;;5028184;28;19921;-66
2023/06/07 11:40:21;;;;;;;;;;;;;;;;;;5028468;28;20279;-66
2023/06/07 11:42:47;;;;;;;;;;;;;;;;;;5029312;28;19964;-66
2023/06/07 11:45:12;;;;;;;;;;;;;;;;;;5032739;28;19975;-65
2023/06/07 11:47:38;;;;;;;;;;;;;;;;;;5032509;28;20269;-66
2023/06/07 11:50:04;;;;;;;;;;;;;;;;;;5032191;28;19928;-66
2023/06/07 11:52:30;;;;;;;;;;;;;;;;;;5032167;28;19925;-66
2023/06/07 11:54:56;;;;;;;;;;;;;;;;;;5030544;28;19943;-66
2023/06/07 11:57:22;;;;;;;;;;;;;;;;;;5014619;28;19921;-65
2023/06/07 11:59:51;;;;;;;;;;;;;;;;;;5032526;28;20012;-66
2023/06/07 12:02:17;;;;;;;;;;;;;;;;;;5027185;28;19925;-65
2023/06/07 12:04:43;;;;;;;;;;;;;;;;;;5014039;28;19999;-65
2023/06/07 12:07:11;;;;;;;;;;;;;;;;;;5030432;28;20278;-66
2023/06/07 12:09:36;;;;;;;;;;;;;;;;;;5029279;28;20490;-66
2023/06/07 12:12:02;;;;;;;;;;;;;;;;;;5032174;28;19928;-65
2023/06/07 12:14:29;;;;;;;;;;;;;;;;;;5032337;28;19921;-65
2023/06/07 12:16:55;;;;;;;;;;;;;;;;;;5022086;28;20036;-65
2023/06/07 12:19:21;;;;;;;;;;;;;;;;;;5012417;28;20095;-65
2023/06/07 12:21:47;;;;;;;;;;;;;;;;;;5017957;28;19932;-66
2023/06/07 12:24:13;;;;;;;;;;;;;;;;;;5028590;28;20342;-65
2023/06/07 12:26:39;;;;;;;;;;;;;;;;;;5031923;28;19921;-65
2023/06/07 12:29:05;;;;;;;;;;;;;;;;;;5031271;28;19921;-65
2023/06/07 12:31:31;;;;;;;;;;;;;;;;;;5029887;28;20036;-66
2023/06/07 12:33:57;;;;;;;;;;;;;;;;;;5031835;28;19925;-65
2023/06/07 12:36:24;;;;;;;;;;;;;;;;;;5022636;28;19929;-66
2023/06/07 12:38:50;;;;;;;;;;;;;;;;;;5024869;28;19925;-66
2023/06/07 12:41:16;;;;;;;;;;;;;;;;;;5013246;28;19928;-65
2023/06/07 12:43:42;;;;;;;;;;;;;;;;;;5028465;28;20379;-65
2023/06/07 12:46:08;;;;;;;;;;;;;;;;;;5010297;28;19925;-66
2023/06/07 12:48:34;;;;;;;;;;;;;;;;;;5022544;28;19987;-65
2023/06/07 12:51:00;;;;;;;;;;;;;;;;;;5025629;28;19932;-65
2023/06/07 12:53:25;;;;;;;;;;;;;;;;;;5020152;28;19922;-65
2023/06/07 12:55:51;;;;;;;;;;;;;;;;;;5027603;28;19931;-66
2023/06/07 12:58:18;;;;;;;;;;;;;;;;;;5025985;28;19925;-65
2023/06/07 13:00:44;;;;;;;;;;;;;;;;;;5030286;28;20375;-65
2023/06/07 13:03:10;;;;;;;;;;;;;;;;;;5025809;28;19936;-65
2023/06/07 13:05:35;;;;;;;;;;;;;;;;;;5025046;28;20000;-65
2023/06/07 13:08:01;;;;;;;;;;;;;;;;;;5026994;28;20369;-65
2023/06/07 13:10:27;;;;;;;;;;;;;;;;;;5029143;28;19966;-64
2023/06/07 13:12:53;;;;;;;;;;;;;;;;;;5032721;28;20286;-65
2023/06/07 13:15:19;;;;;;;;;;;;;;;;;;5034932;28;19929;-65
2023/06/07 13:17:45;;;;;;;;;;;;;;;;;;5021093;28;19928;-65
2023/06/07 13:20:11;;;;;;;;;;;;;;;;;;5032948;28;20727;-64
2023/06/07 13:22:37;;;;;;;;;;;;;;;;;;5028096;28;19987;-65
2023/06/07 13:25:03;;;;;;;;;;;;;;;;;;5028148;28;19929;-65
2023/06/07 13:27:29;;;;;;;;;;;;;;;;;;5010827;28;19922;-65
2023/06/07 13:29:55;;;;;;;;;;;;;;;;;;5034790;28;19921;-65
2023/06/07 13:32:21;;;;;;;;;;;;;;;;;;5030524;28;19986;-65
2023/06/07 13:34:47;;;;;;;;;;;;;;;;;;5022257;28;19921;-64
2023/06/07 13:37:13;;;;;;;;;;;;;;;;;;5042497;28;19928;-66
2023/06/07 13:39:39;;;;;;;;;;;;;;;;;;5035384;28;19932;-65
2023/06/07 13:42:05;;;;;;;;;;;;;;;;;;5029718;28;20430;-65
2023/06/07 13:44:32;;;;;;;;;;;;;;;;;;5029485;28;19932;-65
2023/06/07 13:46:57;;;;;;;;;;;;;;;;;;5020314;28;19969;-66
2023/06/07 13:49:23;;;;;;;;;;;;;;;;;;5025821;28;20429;-65
2023/06/07 13:51:49;;;;;;;;;;;;;;;;;;5009470;28;19933;-65
2023/06/07 13:54:15;;;;;;;;;;;;;;;;;;5025415;28;20011;-66
2023/06/07 13:56:41;;;;;;;;;;;;;;;;;;5018078;28;20551;-66
2023/06/07 13:59:07;;;;;;;;;;;;;;;;;;5019278;28;19925;-65
2023/06/07 14:01:33;;;;;;;;;;;;;;;;;;5031127;28;19960;-65
2023/06/07 14:03:59;;;;;;;;;;;;;;;;;;5027420;28;19921;-65
2023/06/07 14:06:26;;;;;;;;;;;;;;;;;;5071596;22;19935;-59
2023/06/07 14:08:52;;;;;;;;;;;;;;;;;;5064082;28;19931;-60
2023/06/07 14:11:18;;;;;;;;;;;;;;;;;;5068642;28;20503;-59
2023/06/07 14:13:44;;;;;;;;;;;;;;;;;;5067522;28;19935;-59
2023/06/07 14:16:12;;;;;;;;;;;;;;;;;;5061970;28;19974;-60
2023/06/07 14:18:37;;;;;;;;;;;;;;;;;;5065702;28;19986;-59
2023/06/07 14:21:03;;;;;;;;;;;;;;;;;;5071966;28;20354;-59
2023/06/07 14:23:29;;;;;;;;;;;;;;;;;;5065215;28;19959;-59
2023/06/07 14:25:55;;;;;;;;;;;;;;;;;;5066830;28;20036;-59
2023/06/07 14:28:21;;;;;;;;;;;;;;;;;;5044968;28;19974;-59
2023/06/07 14:30:47;;;;;;;;;;;;;;;;;;5050442;28;19920;-59
2023/06/07 14:33:13;;;;;;;;;;;;;;;;;;5062470;28;19920;-59
2023/06/07 14:35:39;;;;;;;;;;;;;;;;;;5071434;28;19924;-59
2023/06/07 14:38:05;;;;;;;;;;;;;;;;;;5071625;28;19982;-60
2023/06/07 14:40:31;;;;;;;;;;;;;;;;;;5066922;28;19920;-60
2023/06/07 14:42:57;;;;;;;;;;;;;;;;;;5069367;28;19928;-60
2023/06/07 14:45:24;;;;;;;;;;;;;;;;;;5070660;28;19976;-60
2023/06/07 14:47:50;;;;;;;;;;;;;;;;;;5072587;28;19970;-60
2023/06/07 14:50:16;;;;;;;;;;;;;;;;;;5053816;28;19928;-59
2023/06/07 14:52:42;;;;;;;;;;;;;;;;;;5050428;28;19954;-61
2023/06/07 14:55:08;;;;;;;;;;;;;;;;;;5055260;28;19924;-60
2023/06/07 14:57:34;;;;;;;;;;;;;;;;;;5073224;28;19924;-60
2023/06/07 15:00:04;;;;;;;;;;;;;;;;;;5047068;28;19924;-60
2023/06/07 15:02:29;;;;;;;;;;;;;;;;;;5048528;28;19960;-60
2023/06/07 15:04:55;;;;;;;;;;;;;;;;;;5073565;28;19958;-60
2023/06/07 15:07:21;;;;;;;;;;;;;;;;;;5073154;28;19928;-59
2023/06/07 15:09:47;;;;;;;;;;;;;;;;;;5064542;28;19997;-60
2023/06/07 15:12:13;;;;;;;;;;;;;;;;;;5072845;28;20430;-60
2023/06/07 15:14:39;;;;;;;;;;;;;;;;;;5067413;28;20366;-60
2023/06/07 15:17:10;;;;;;;;;;;;;;;;;;5070405;28;19999;-60
2023/06/07 15:19:36;;;;;;;;;;;;;;;;;;5069888;28;20278;-60
2023/06/07 15:22:02;;;;;;;;;;;;;;;;;;5023420;28;19927;-60
2023/06/07 15:24:28;;;;;;;;;;;;;;;;;;5047402;28;20345;-60
2023/06/07 15:26:54;;;;;;;;;;;;;;;;;;5063478;28;19924;-61
2023/06/07 15:29:20;;;;;;;;;;;;;;;;;;5044776;28;19928;-58
2023/06/07 15:31:46;;;;;;;;;;;;;;;;;;5069901;28;19927;-59
2023/06/07 15:34:12;;;;;;;;;;;;;;;;;;5067657;28;19920;-59
2023/06/07 15:36:38;;;;;;;;;;;;;;;;;;5071921;28;19920;-59
2023/06/07 15:39:04;;;;;;;;;;;;;;;;;;5060833;28;19925;-59
2023/06/07 15:41:30;;;;;;;;;;;;;;;;;;5058877;28;20317;-59
2023/06/07 15:43:56;;;;;;;;;;;;;;;;;;5062979;28;19931;-60
2023/06/07 15:46:22;;;;;;;;;;;;;;;;;;5064401;28;19968;-59
2023/06/07 15:48:50;;;;;;;;;;;;;;;;;;5070426;28;19920;-59
2023/06/07 15:51:16;;;;;;;;;;;;;;;;;;5064755;28;19935;-59
2023/06/07 15:53:42;;;;;;;;;;;;;;;;;;5065384;28;20293;-59
2023/06/07 15:56:08;;;;;;;;;;;;;;;;;;5069868;28;19921;-59
2023/06/07 15:58:36;;;;;;;;;;;;;;;;;;5066862;28;19928;-59
2023/06/07 16:01:02;;;;;;;;;;;;;;;;;;5047864;28;19946;-59
2023/06/07 16:03:28;;;;;;;;;;;;;;;;;;5064282;28;20794;-59
2023/06/07 16:05:54;;;;;;;;;;;;;;;;;;5062064;28;19937;-59
2023/06/07 16:08:20;;;;;;;;;;;;;;;;;;5062793;28;19921;-59
2023/06/07 16:10:45;;;;;;;;;;;;;;;;;;5060003;28;20008;-60
2023/06/07 16:13:11;;;;;;;;;;;;;;;;;;5065015;28;19921;-60
2023/06/07 16:15:37;;;;;;;;;;;;;;;;;;5039176;28;19921;-60
2023/06/07 16:18:03;;;;;;;;;;;;;;;;;;5070169;28;20056;-60
2023/06/07 16:20:29;;;;;;;;;;;;;;;;;;5047333;28;19928;-60
2023/06/07 16:22:55;;;;;;;;;;;;;;;;;;5049001;28;19967;-60
2023/06/07 16:25:21;;;;;;;;;;;;;;;;;;5074453;28;19925;-60
2023/06/07 16:27:47;;;;;;;;;;;;;;;;;;5063614;28;19921;-60
2023/06/07 16:30:13;;;;;;;;;;;;;;;;;;5057499;28;19971;-60
2023/06/07 16:32:38;;;;;;;;;;;;;;;;;;5066002;28;19936;-60
2023/06/07 16:35:04;;;;;;;;;;;;;;;;;;5066951;28;20330;-60
2023/06/07 16:37:30;;;;;;;;;;;;;;;;;;5069760;28;20270;-60